Time;durP1;ratioP1;P1;durP2;ratioP2;P2;SDS_P1;SDS_P2;PMS_P1;PMS_P2;Temp;Humidity;BMP_temperature;BMP_pressure;BME280_temperature;BME280_humidity;BME280_pressure;Samples;Min_cycle;Max_cycle;Signal;HPM_P1;HPM_P2
2023/03/20 00:01:38;;;;;;;;;;;;;;;9.90;82.77;98128.53;5058647;28;19940;-56
2023/03/20 00:04:06;;;;;;;;;;;;;;;10.00;82.39;98135.66;5066490;28;19932;-56
2023/03/20 00:06:34;;;;;;;;;;;;;;;9.88;82.89;98123.41;5068556;28;19982;-55
2023/03/20 00:09:03;;;;;;;;;;;;;;;9.86;83.08;98131.06;5071481;28;19925;-56
2023/03/20 00:11:35;;;;;;;;;;;;;;;9.85;82.89;98129.41;5084669;28;19962;-56
2023/03/20 00:14:04;;;;;;;;;;;;;;;9.77;82.69;98138.28;5073077;28;19928;-56
2023/03/20 00:16:33;;;;;;;;;;;;;;;9.70;82.18;98127.81;5073730;28;20296;-56
2023/03/20 00:19:02;;;;;;;;;;;;;;;9.73;82.05;98137.25;5066742;28;19931;-56
2023/03/20 00:21:30;;;;;;;;;;;;;;;9.70;81.93;98135.97;5065197;28;20014;-55
2023/03/20 00:23:59;;;;;;;;;;;;;;;9.78;80.72;98130.94;5063585;28;19930;-57
2023/03/20 00:26:28;;;;;;;;;;;;;;;9.74;80.74;98138.06;5071046;28;19924;-55
2023/03/20 00:28:57;;;;;;;;;;;;;;;9.67;80.87;98133.84;5071961;28;20018;-56
2023/03/20 00:31:26;;;;;;;;;;;;;;;9.73;80.57;98131.84;5069855;28;20297;-55
2023/03/20 00:33:56;;;;;;;;;;;;;;;9.71;80.69;98131.34;5070968;28;20301;-56
2023/03/20 00:36:24;;;;;;;;;;;;;;;9.66;80.87;98126.00;5069809;28;19925;-59
2023/03/20 00:38:52;;;;;;;;;;;;;;;9.75;80.67;98135.06;5068631;28;19959;-59
2023/03/20 00:41:21;;;;;;;;;;;;;;;9.75;81.05;98124.22;5069885;28;19932;-55
2023/03/20 00:43:49;;;;;;;;;;;;;;;9.82;80.09;98140.09;5082669;28;20343;-55
2023/03/20 00:46:20;;;;;;;;;;;;;;;9.93;79.34;98130.66;5071777;28;19966;-55
2023/03/20 00:48:48;;;;;;;;;;;;;;;9.78;79.66;98133.66;5072344;28;19924;-61
2023/03/20 00:51:17;;;;;;;;;;;;;;;9.84;78.90;98132.44;5068320;28;19928;-55
2023/03/20 00:53:45;;;;;;;;;;;;;;;9.83;79.25;98130.84;5072236;28;19929;-55
2023/03/20 00:56:24;;;;;;;;;;;;;;;9.69;79.73;98126.22;5086568;28;19928;-56
2023/03/20 00:58:52;;;;;;;;;;;;;;;9.70;79.88;98127.03;5067877;28;19939;-56
2023/03/20 01:01:22;;;;;;;;;;;;;;;9.90;78.04;98126.63;5067637;28;19925;-56
2023/03/20 01:03:50;;;;;;;;;;;;;;;9.99;78.07;98124.00;5072468;28;19924;-55
2023/03/20 01:06:18;;;;;;;;;;;;;;;9.81;77.92;98128.44;5074383;28;19929;-56
2023/03/20 01:08:47;;;;;;;;;;;;;;;9.84;77.32;98132.44;5070065;28;19954;-55
2023/03/20 01:11:15;;;;;;;;;;;;;;;9.68;78.16;98129.22;5067544;28;19932;-56
2023/03/20 01:13:43;;;;;;;;;;;;;;;9.71;77.92;98123.19;5066364;28;20500;-56
2023/03/20 01:16:16;;;;;;;;;;;;;;;9.61;78.19;98118.75;5072060;28;19924;-55
2023/03/20 01:18:48;;;;;;;;;;;;;;;9.56;78.62;98118.06;5069570;28;19935;-56
2023/03/20 01:21:16;;;;;;;;;;;;;;;9.62;78.94;98114.94;5067873;28;20208;-56
2023/03/20 01:23:43;;;;;;;;;;;;;;;9.53;79.02;98110.50;5070470;28;19936;-56
2023/03/20 01:26:18;;;;;;;;;;;;;;;9.61;79.07;98107.91;5065475;28;19925;-57
2023/03/20 01:28:47;;;;;;;;;;;;;;;9.66;79.24;98115.16;5070739;28;20409;-56
2023/03/20 01:31:16;;;;;;;;;;;;;;;9.71;79.24;98112.34;5082728;28;19931;-56
2023/03/20 01:33:45;;;;;;;;;;;;;;;9.72;79.19;98116.66;5075094;28;19975;-56
2023/03/20 01:36:14;;;;;;;;;;;;;;;9.76;78.30;98123.09;5069688;28;19963;-56
2023/03/20 01:38:42;;;;;;;;;;;;;;;9.85;77.63;98126.72;5066439;28;20207;-56
2023/03/20 01:41:12;;;;;;;;;;;;;;;9.84;77.25;98133.25;5069227;28;19932;-56
2023/03/20 01:43:40;;;;;;;;;;;;;;;9.82;77.87;98137.38;5075110;28;19928;-55
2023/03/20 01:46:16;;;;;;;;;;;;;;;9.71;78.57;98136.75;5069191;28;19924;-56
2023/03/20 01:49:04;;;;;;;;;;;;;;;9.63;79.03;98137.44;5065073;28;19995;-57
2023/03/20 01:51:35;;;;;;;;;;;;;;;9.53;79.28;98135.72;5068500;28;20374;-56
2023/03/20 01:54:09;;;;;;;;;;;;;;;9.68;78.46;98140.88;5070574;28;19932;-56
2023/03/20 01:56:46;;;;;;;;;;;;;;;9.67;78.61;98138.47;5058717;28;19960;-59
2023/03/20 01:59:14;;;;;;;;;;;;;;;9.72;78.23;98143.78;5073440;28;20442;-57
2023/03/20 02:01:42;;;;;;;;;;;;;;;9.67;78.64;98147.41;5068461;28;20531;-55
2023/03/20 02:04:13;;;;;;;;;;;;;;;9.66;78.66;98145.00;5070577;28;19924;-56
2023/03/20 02:06:50;;;;;;;;;;;;;;;9.57;78.97;98142.16;5067972;28;19925;-56
2023/03/20 02:09:46;;;;;;;;;;;;;;;9.72;78.53;98149.22;5055641;28;19943;-55
2023/03/20 02:12:20;;;;;;;;;;;;;;;9.73;78.36;98145.41;5080077;28;19959;-58
2023/03/20 02:14:49;;;;;;;;;;;;;;;9.79;78.73;98149.63;5066566;28;19956;-56
2023/03/20 02:17:43;;;;;;;;;;;;;;;9.71;78.37;98147.63;5066398;28;20632;-56
2023/03/20 02:20:16;;;;;;;;;;;;;;;9.64;78.39;98145.31;5067867;28;19968;-55
2023/03/20 02:22:53;;;;;;;;;;;;;;;9.82;77.44;98149.03;5068324;28;20344;-59
2023/03/20 02:25:27;;;;;;;;;;;;;;;9.86;77.53;98151.97;5072361;28;19925;-60
2023/03/20 02:28:01;;;;;;;;;;;;;;;9.70;78.55;98148.72;5064654;28;19936;-56
2023/03/20 02:30:41;;;;;;;;;;;;;;;9.64;78.08;98147.19;5066630;28;20015;-55
2023/03/20 02:33:28;;;;;;;;;;;;;;;9.74;77.85;98154.34;5065241;28;19983;-56
2023/03/20 02:36:04;;;;;;;;;;;;;;;9.72;77.97;98151.94;5068191;28;19925;-57
2023/03/20 02:38:50;;;;;;;;;;;;;;;9.60;78.09;98154.34;5067148;28;19925;-57
2023/03/20 02:41:21;;;;;;;;;;;;;;;9.39;79.30;98148.47;5064464;28;20404;-56
2023/03/20 02:43:52;;;;;;;;;;;;;;;9.54;78.64;98160.97;5067485;28;20336;-57
2023/03/20 02:46:22;;;;;;;;;;;;;;;9.62;78.12;98154.84;5064527;28;19925;-55
2023/03/20 02:48:51;;;;;;;;;;;;;;;9.56;78.41;98158.75;5085817;28;19967;-56
2023/03/20 02:51:23;;;;;;;;;;;;;;;9.60;78.30;98159.75;5066888;28;19924;-55
2023/03/20 02:53:52;;;;;;;;;;;;;;;9.63;78.39;98161.84;5069006;28;19978;-56
2023/03/20 02:56:24;;;;;;;;;;;;;;;9.42;79.37;98164.94;5079384;28;19931;-56
2023/03/20 02:58:53;;;;;;;;;;;;;;;9.45;79.60;98164.34;5063383;28;19932;-56
2023/03/20 03:01:22;;;;;;;;;;;;;;;9.48;79.14;98173.81;5065135;28;19931;-57
2023/03/20 03:03:51;;;;;;;;;;;;;;;9.44;79.22;98160.03;5083402;28;19970;-55
2023/03/20 03:06:19;;;;;;;;;;;;;;;9.36;79.58;98160.69;5069150;28;19928;-56
2023/03/20 03:08:48;;;;;;;;;;;;;;;9.53;79.16;98162.03;5083997;28;19928;-56
2023/03/20 03:11:16;;;;;;;;;;;;;;;9.42;79.24;98159.50;5068197;28;19936;-56
2023/03/20 03:13:47;;;;;;;;;;;;;;;9.32;79.72;98165.13;5064486;28;19936;-56
2023/03/20 03:16:16;;;;;;;;;;;;;;;9.34;79.82;98167.53;5067331;28;20275;-57
2023/03/20 03:18:46;;;;;;;;;;;;;;;9.42;79.86;98166.84;5065769;28;20390;-57
2023/03/20 03:21:15;;;;;;;;;;;;;;;9.55;78.71;98168.00;5064773;28;19982;-57
2023/03/20 03:23:43;;;;;;;;;;;;;;;9.55;78.92;98173.41;5068052;28;19929;-55
2023/03/20 03:26:12;;;;;;;;;;;;;;;9.46;79.02;98170.56;5080615;28;19959;-55
2023/03/20 03:28:40;;;;;;;;;;;;;;;9.23;79.89;98180.44;5080001;28;19928;-56
2023/03/20 03:31:09;;;;;;;;;;;;;;;9.27;79.39;98178.75;5065452;28;19939;-56
2023/03/20 03:33:38;;;;;;;;;;;;;;;9.23;79.99;98185.06;5060590;28;19924;-56
2023/03/20 03:36:08;;;;;;;;;;;;;;;9.33;79.29;98182.19;5061760;28;19933;-55
2023/03/20 03:38:38;;;;;;;;;;;;;;;9.31;79.06;98182.47;5061510;28;20024;-55
2023/03/20 03:41:15;;;;;;;;;;;;;;;9.29;79.23;98181.16;5068608;28;19978;-55
2023/03/20 03:43:43;;;;;;;;;;;;;;;9.28;79.14;98184.97;5067556;28;20270;-56
2023/03/20 03:46:13;;;;;;;;;;;;;;;9.24;79.12;98184.75;5069079;28;19925;-56
2023/03/20 03:48:43;;;;;;;;;;;;;;;9.12;79.82;98179.00;5061000;28;20434;-57
2023/03/20 03:51:11;;;;;;;;;;;;;;;9.08;79.76;98180.69;5064463;28;20388;-55
2023/03/20 03:53:50;;;;;;;;;;;;;;;9.13;79.76;98177.91;5078458;28;19960;-56
2023/03/20 03:56:20;;;;;;;;;;;;;;;9.16;79.12;98183.53;5060640;28;19929;-55
2023/03/20 03:58:49;;;;;;;;;;;;;;;9.12;79.06;98182.50;5073013;28;20381;-55
2023/03/20 04:01:18;;;;;;;;;;;;;;;8.93;79.29;98177.09;5067708;28;19932;-55
2023/03/20 04:03:47;;;;;;;;;;;;;;;8.92;79.33;98182.81;5067968;28;19976;-55
2023/03/20 04:06:15;;;;;;;;;;;;;;;8.87;79.82;98180.97;5068399;28;19929;-57
2023/03/20 04:08:43;;;;;;;;;;;;;;;8.82;80.00;98178.34;5066706;28;19936;-56
2023/03/20 04:11:12;;;;;;;;;;;;;;;8.79;80.26;98180.81;5061118;28;19924;-55
2023/03/20 04:13:40;;;;;;;;;;;;;;;8.82;80.33;98181.06;5079725;28;19929;-56
2023/03/20 04:16:09;;;;;;;;;;;;;;;8.84;80.22;98178.88;5058749;28;20017;-55
2023/03/20 04:18:38;;;;;;;;;;;;;;;8.77;80.73;98181.13;5057484;28;19924;-59
2023/03/20 04:21:06;;;;;;;;;;;;;;;8.80;80.46;98185.16;5080902;28;19924;-56
2023/03/20 04:23:34;;;;;;;;;;;;;;;8.70;80.97;98183.41;5063444;28;19933;-56
2023/03/20 04:26:02;;;;;;;;;;;;;;;8.68;80.93;98187.47;5070949;28;20285;-56
2023/03/20 04:28:33;;;;;;;;;;;;;;;8.59;81.66;98190.84;5060673;28;19999;-57
2023/03/20 04:31:35;;;;;;;;;;;;;;;8.64;81.28;98184.56;5064443;28;20175;-56
2023/03/20 04:34:04;;;;;;;;;;;;;;;8.57;81.57;98186.81;5061695;28;20015;-55
2023/03/20 04:36:40;;;;;;;;;;;;;;;8.68;81.75;98188.28;5066184;28;19928;-56
2023/03/20 04:39:11;;;;;;;;;;;;;;;8.60;81.23;98186.25;5066949;28;20395;-56
2023/03/20 04:41:39;;;;;;;;;;;;;;;8.66;81.04;98199.41;5069858;28;19928;-56
2023/03/20 04:44:08;;;;;;;;;;;;;;;8.66;81.02;98188.59;5083504;28;20014;-56
2023/03/20 04:46:35;;;;;;;;;;;;;;;8.69;80.39;98195.34;5077717;28;19924;-57
2023/03/20 04:49:10;;;;;;;;;;;;;;;8.65;80.92;98197.00;5060421;28;19936;-56
2023/03/20 04:51:38;;;;;;;;;;;;;;;8.68;80.78;98196.41;5062246;28;20396;-56
2023/03/20 04:54:06;;;;;;;;;;;;;;;8.71;80.15;98209.38;5068071;28;20396;-56
2023/03/20 04:56:33;;;;;;;;;;;;;;;8.60;80.99;98194.38;5070460;28;20336;-57
2023/03/20 04:59:12;;;;;;;;;;;;;;;8.57;81.11;98197.66;5066668;28;19930;-56
2023/03/20 05:01:41;;;;;;;;;;;;;;;8.62;80.37;98194.88;5070975;28;19951;-58
2023/03/20 05:04:10;;;;;;;;;;;;;;;8.59;80.99;98196.28;5087144;28;19925;-56
2023/03/20 05:06:38;;;;;;;;;;;;;;;8.54;81.00;98195.53;5089578;28;20439;-56
2023/03/20 05:09:06;;;;;;;;;;;;;;;8.70;80.62;98213.19;5068523;28;20381;-57
2023/03/20 05:11:35;;;;;;;;;;;;;;;8.63;80.63;98223.59;5067878;28;19940;-57
2023/03/20 05:14:37;;;;;;;;;;;;;;;8.73;80.48;98220.72;5066363;28;19931;-57
2023/03/20 05:17:38;;;;;;;;;;;;;;;8.75;80.66;98228.56;5066250;28;19976;-56
2023/03/20 05:20:20;;;;;;;;;;;;;;;8.84;79.96;98224.94;5070791;28;19928;-56
2023/03/20 05:23:17;;;;;;;;;;;;;;;8.87;78.96;98229.75;5044078;28;20314;-56
2023/03/20 05:25:51;;;;;;;;;;;;;;;8.86;78.97;98236.28;5067571;28;19936;-57
2023/03/20 05:28:33;;;;;;;;;;;;;;;8.95;78.48;98235.59;5086109;28;19973;-58
2023/03/20 05:31:27;;;;;;;;;;;;;;;8.88;78.58;98235.97;5067144;28;20296;-60
2023/03/20 05:34:05;;;;;;;;;;;;;;;8.90;78.58;98234.59;5071367;28;19925;-56
2023/03/20 05:37:03;;;;;;;;;;;;;;;8.69;79.75;98238.69;5062100;28;20473;-57
2023/03/20 05:39:57;;;;;;;;;;;;;;;8.85;79.10;98242.78;5081942;28;20326;-57
2023/03/20 05:42:37;;;;;;;;;;;;;;;8.92;78.53;98237.81;5081414;28;20297;-57
2023/03/20 05:45:05;;;;;;;;;;;;;;;8.89;78.01;98235.69;5068647;28;19924;-58
2023/03/20 05:47:48;;;;;;;;;;;;;;;8.93;79.04;98235.91;5083780;28;20028;-56
2023/03/20 05:50:36;;;;;;;;;;;;;;;8.85;78.70;98242.00;5064805;28;19925;-57
2023/03/20 05:53:08;;;;;;;;;;;;;;;8.88;79.24;98244.91;5068698;28;19924;-56
2023/03/20 05:56:09;;;;;;;;;;;;;;;8.81;79.12;98243.66;5068460;28;19924;-57
2023/03/20 05:58:48;;;;;;;;;;;;;;;8.73;79.79;98239.69;5075728;28;19982;-60
2023/03/20 06:01:44;;;;;;;;;;;;;;;8.94;78.91;98248.34;5066046;28;19958;-58
2023/03/20 06:04:38;;;;;;;;;;;;;;;8.93;79.06;98250.25;5066360;28;19928;-57
2023/03/20 06:07:27;;;;;;;;;;;;;;;8.87;79.39;98253.34;5084762;28;19925;-57
2023/03/20 06:10:01;;;;;;;;;;;;;;;8.86;79.92;98260.66;5069411;28;19979;-58
2023/03/20 06:12:30;;;;;;;;;;;;;;;8.98;79.50;98264.84;5083936;28;19932;-57
2023/03/20 06:14:58;;;;;;;;;;;;;;;9.09;79.13;98266.31;5068844;28;19960;-57
2023/03/20 06:17:27;;;;;;;;;;;;;;;9.22;78.22;98273.72;5067775;28;19932;-58
2023/03/20 06:20:02;;;;;;;;;;;;;;;9.31;77.77;98274.66;5067368;28;20325;-57
2023/03/20 06:22:31;;;;;;;;;;;;;;;9.32;77.58;98279.00;5076886;28;19989;-57
2023/03/20 06:25:03;;;;;;;;;;;;;;;9.26;77.45;98273.91;5080856;28;20294;-59
2023/03/20 06:27:36;;;;;;;;;;;;;;;9.15;78.28;98279.47;5079321;28;19996;-58
2023/03/20 06:30:03;;;;;;;;;;;;;;;9.26;78.36;98280.16;5067837;28;19932;-57
2023/03/20 06:32:34;;;;;;;;;;;;;;;9.22;78.11;98284.56;5070513;28;19924;-58
2023/03/20 06:35:06;;;;;;;;;;;;;;;9.21;77.93;98277.50;5086517;28;19924;-57
2023/03/20 06:37:35;;;;;;;;;;;;;;;9.27;77.96;98280.94;5086604;28;19932;-57
2023/03/20 06:40:12;;;;;;;;;;;;;;;9.31;77.53;98280.06;5071194;28;19928;-57
2023/03/20 06:42:40;;;;;;;;;;;;;;;9.30;78.06;98283.88;5069933;28;20388;-59
2023/03/20 06:45:10;;;;;;;;;;;;;;;9.27;78.31;98280.94;5063529;28;19977;-57
2023/03/20 06:47:57;;;;;;;;;;;;;;;9.50;77.50;98280.06;5070656;28;19931;-57
2023/03/20 06:50:26;;;;;;;;;;;;;;;9.51;77.15;98281.69;5069181;28;19928;-57
2023/03/20 06:52:54;;;;;;;;;;;;;;;9.56;77.13;98286.22;5068865;28;19933;-57
2023/03/20 06:55:42;;;;;;;;;;;;;;;9.56;76.42;98287.03;5071590;28;19935;-57
2023/03/20 06:58:10;;;;;;;;;;;;;;;9.51;76.97;98287.09;5071044;28;20308;-58
2023/03/20 07:00:38;;;;;;;;;;;;;;;9.62;76.65;98293.19;5071133;28;19929;-57
2023/03/20 07:03:08;;;;;;;;;;;;;;;9.61;76.89;98284.22;5070671;28;19924;-57
2023/03/20 07:05:40;;;;;;;;;;;;;;;9.67;76.23;98284.97;5081829;28;19931;-57
2023/03/20 07:08:10;;;;;;;;;;;;;;;9.62;76.43;98285.03;5060994;28;19924;-61
2023/03/20 07:10:38;;;;;;;;;;;;;;;9.68;76.09;98290.06;5067775;28;19947;-57
2023/03/20 07:13:08;;;;;;;;;;;;;;;9.66;76.65;98294.19;5064657;28;20408;-57
2023/03/20 07:15:47;;;;;;;;;;;;;;;9.80;75.78;98295.06;5057550;28;19978;-58
2023/03/20 07:18:34;;;;;;;;;;;;;;;9.79;75.80;98285.28;5066266;28;19960;-57
2023/03/20 07:21:04;;;;;;;;;;;;;;;9.80;75.91;98289.63;5066735;28;19960;-56
2023/03/20 07:23:33;;;;;;;;;;;;;;;9.90;75.82;98286.72;5080832;28;20396;-57
2023/03/20 07:26:02;;;;;;;;;;;;;;;9.95;75.21;98292.06;5084999;28;20416;-57
2023/03/20 07:28:31;;;;;;;;;;;;;;;10.06;75.53;98291.91;5069035;28;19928;-57
2023/03/20 07:31:10;;;;;;;;;;;;;;;10.04;74.79;98294.91;5066774;28;19932;-57
2023/03/20 07:33:38;;;;;;;;;;;;;;;10.11;74.63;98294.53;5059950;28;19925;-57
2023/03/20 07:36:07;;;;;;;;;;;;;;;10.16;74.31;98306.09;5071431;28;19932;-56
2023/03/20 07:38:36;;;;;;;;;;;;;;;10.16;73.76;98294.44;5081592;28;20420;-60
2023/03/20 07:41:09;;;;;;;;;;;;;;;10.18;73.57;98297.69;5063578;28;20447;-56
2023/03/20 07:43:41;;;;;;;;;;;;;;;10.21;74.08;98295.16;5086924;28;20370;-57
2023/03/20 07:46:39;;;;;;;;;;;;;;;10.18;74.14;98289.53;5063760;28;19924;-57
2023/03/20 07:49:07;;;;;;;;;;;;;;;10.30;74.00;98298.03;5082909;28;19971;-57
2023/03/20 07:51:35;;;;;;;;;;;;;;;10.28;73.65;98300.25;5070809;28;19947;-57
2023/03/20 07:54:06;;;;;;;;;;;;;;;10.23;73.94;98293.00;5080230;28;19924;-57
2023/03/20 07:56:34;;;;;;;;;;;;;;;10.44;73.51;98295.34;5067738;28;19925;-59
2023/03/20 07:59:03;;;;;;;;;;;;;;;10.41;73.39;98293.19;5064713;28;19929;-57
2023/03/20 08:01:31;;;;;;;;;;;;;;;10.38;72.70;98304.66;5068501;28;19931;-57
2023/03/20 08:03:58;;;;;;;;;;;;;;;10.38;73.04;98300.03;5065139;28;19964;-57
2023/03/20 08:06:26;;;;;;;;;;;;;;;10.39;72.92;98296.22;5069120;28;19997;-58
2023/03/20 08:08:55;;;;;;;;;;;;;;;10.41;73.25;98293.19;5068176;28;19947;-57
2023/03/20 08:11:23;;;;;;;;;;;;;;;10.48;72.80;98299.03;5064260;28;20301;-62
2023/03/20 08:13:51;;;;;;;;;;;;;;;10.52;73.08;98307.41;5064067;28;19924;-57
2023/03/20 08:16:20;;;;;;;;;;;;;;;10.55;72.66;98301.38;5069878;28;19935;-57
2023/03/20 08:18:49;;;;;;;;;;;;;;;10.60;72.53;98302.06;5068807;28;19977;-57
2023/03/20 08:21:17;;;;;;;;;;;;;;;10.66;71.45;98297.34;5067065;28;20430;-58
2023/03/20 08:23:45;;;;;;;;;;;;;;;10.64;71.93;98297.63;5065653;28;19975;-57
2023/03/20 08:26:12;;;;;;;;;;;;;;;10.74;71.95;98299.34;5071815;28;20401;-58
2023/03/20 08:28:40;;;;;;;;;;;;;;;10.90;71.62;98299.84;5067438;28;19935;-57
2023/03/20 08:31:15;;;;;;;;;;;;;;;10.73;71.42;98295.03;5069873;28;19955;-57
2023/03/20 08:33:44;;;;;;;;;;;;;;;10.82;70.99;98295.13;5072734;28;19969;-58
2023/03/20 08:36:13;;;;;;;;;;;;;;;10.93;70.35;98297.31;5070764;28;19928;-56
2023/03/20 08:38:42;;;;;;;;;;;;;;;11.01;70.64;98295.78;5070622;28;19925;-57
2023/03/20 08:41:09;;;;;;;;;;;;;;;11.09;70.57;98300.53;5067485;28;19932;-58
2023/03/20 08:43:38;;;;;;;;;;;;;;;11.17;69.73;98304.44;5069691;28;19925;-59
2023/03/20 08:46:06;;;;;;;;;;;;;;;11.11;69.20;98305.66;5074479;28;19932;-57
2023/03/20 08:48:33;;;;;;;;;;;;;;;10.98;69.53;98296.41;5071834;28;20446;-61
2023/03/20 08:51:03;;;;;;;;;;;;;;;11.06;69.51;98303.03;5071640;28;19932;-57
2023/03/20 08:53:31;;;;;;;;;;;;;;;11.07;69.29;98301.91;5068534;28;19997;-57
2023/03/20 08:55:59;;;;;;;;;;;;;;;11.13;69.55;98303.41;5070225;28;19925;-58
2023/03/20 08:58:27;;;;;;;;;;;;;;;11.22;70.28;98307.03;5071648;28;19928;-57
2023/03/20 09:00:55;;;;;;;;;;;;;;;11.30;69.43;98308.25;5073128;28;19963;-58
2023/03/20 09:03:24;;;;;;;;;;;;;;;11.28;69.09;98311.25;5070697;28;19928;-58
2023/03/20 09:05:52;;;;;;;;;;;;;;;11.43;69.38;98308.19;5068678;28;20294;-57
2023/03/20 09:08:21;;;;;;;;;;;;;;;11.50;68.56;98307.75;5070458;28;19932;-58
2023/03/20 09:10:49;;;;;;;;;;;;;;;11.57;67.86;98310.06;5071329;28;19932;-58
2023/03/20 09:13:21;;;;;;;;;;;;;;;11.64;68.51;98315.88;5068170;28;19935;-57
2023/03/20 09:15:54;;;;;;;;;;;;;;;11.59;67.46;98316.00;5066527;28;19932;-57
2023/03/20 09:18:22;;;;;;;;;;;;;;;11.47;67.51;98320.06;5066992;28;20019;-57
2023/03/20 09:20:50;;;;;;;;;;;;;;;11.37;67.97;98323.03;5070022;28;20274;-58
2023/03/20 09:23:18;;;;;;;;;;;;;;;11.41;68.20;98329.47;5072239;28;20396;-57
2023/03/20 09:25:47;;;;;;;;;;;;;;;11.37;68.52;98320.31;5073602;28;19932;-57
2023/03/20 09:28:15;;;;;;;;;;;;;;;11.38;68.29;98316.47;5068838;28;20404;-58
2023/03/20 09:30:44;;;;;;;;;;;;;;;11.38;68.33;98329.25;5069623;28;19951;-57
2023/03/20 09:33:13;;;;;;;;;;;;;;;11.42;68.51;98325.63;5072742;28;19924;-57
2023/03/20 09:35:42;;;;;;;;;;;;;;;11.37;68.24;98333.91;5069901;28;19924;-57
2023/03/20 09:38:11;;;;;;;;;;;;;;;11.41;67.92;98329.47;5070253;28;19925;-57
2023/03/20 09:40:43;;;;;;;;;;;;;;;11.52;68.04;98330.84;5070312;28;20339;-57
2023/03/20 09:43:14;;;;;;;;;;;;;;;11.53;66.94;98329.72;5067975;28;19933;-57
2023/03/20 09:45:43;;;;;;;;;;;;;;;11.67;67.13;98334.34;5068556;28;20305;-58
2023/03/20 09:48:12;;;;;;;;;;;;;;;11.61;67.16;98335.53;5070189;28;19939;-57
2023/03/20 09:50:42;;;;;;;;;;;;;;;11.58;67.16;98330.72;5067936;28;19931;-57
2023/03/20 09:53:11;;;;;;;;;;;;;;;11.65;67.27;98333.81;5069968;28;20391;-57
2023/03/20 09:55:39;;;;;;;;;;;;;;;11.76;67.25;98329.75;5071598;28;19951;-57
2023/03/20 09:58:10;;;;;;;;;;;;;;;11.91;66.70;98332.13;5071618;28;19928;-57
2023/03/20 10:00:40;;;;;;;;;;;;;;;11.93;66.18;98327.19;5079174;28;19924;-57
2023/03/20 10:03:11;;;;;;;;;;;;;;;11.85;66.36;98333.38;5069046;28;19932;-58
2023/03/20 10:05:43;;;;;;;;;;;;;;;11.80;66.66;98326.09;5071049;28;19932;-57
2023/03/20 10:08:12;;;;;;;;;;;;;;;11.70;67.09;98333.69;5086530;28;19924;-57
2023/03/20 10:10:46;;;;;;;;;;;;;;;11.73;67.03;98328.47;5071272;28;20242;-57
2023/03/20 10:13:24;;;;;;;;;;;;;;;11.85;67.13;98325.22;5072854;28;20010;-57
2023/03/20 10:15:54;;;;;;;;;;;;;;;11.89;66.25;98326.19;5069835;28;19928;-59
2023/03/20 10:18:23;;;;;;;;;;;;;;;11.93;66.15;98321.75;5060811;28;19925;-58
2023/03/20 10:20:54;;;;;;;;;;;;;;;11.96;65.34;98326.56;5072163;28;20378;-57
2023/03/20 10:23:25;;;;;;;;;;;;;;;12.09;65.70;98327.63;5071834;28;19924;-57
2023/03/20 10:25:54;;;;;;;;;;;;;;;12.00;65.14;98322.13;5068960;28;19932;-57
2023/03/20 10:28:23;;;;;;;;;;;;;;;12.14;64.99;98321.22;5070380;28;19924;-57
2023/03/20 10:30:54;;;;;;;;;;;;;;;12.18;64.88;98325.75;5072099;28;20049;-57
2023/03/20 10:33:26;;;;;;;;;;;;;;;12.16;64.33;98324.47;5071301;28;19932;-57
2023/03/20 10:35:57;;;;;;;;;;;;;;;11.99;64.43;98331.41;5069820;28;19974;-57
2023/03/20 10:38:27;;;;;;;;;;;;;;;12.07;64.16;98321.66;5067125;28;19924;-57
2023/03/20 10:40:56;;;;;;;;;;;;;;;12.06;64.57;98325.50;5072025;28;20004;-58
2023/03/20 10:43:24;;;;;;;;;;;;;;;12.02;64.70;98319.88;5065014;28;19951;-58
2023/03/20 10:45:54;;;;;;;;;;;;;;;12.17;64.61;98315.16;5071045;28;19928;-60
2023/03/20 10:48:23;;;;;;;;;;;;;;;12.36;64.69;98318.50;5070698;28;19924;-57
2023/03/20 10:50:51;;;;;;;;;;;;;;;12.41;63.48;98318.34;5069461;28;19961;-56
2023/03/20 10:53:37;;;;;;;;;;;;;;;12.54;63.04;98311.19;5069582;28;19955;-58
2023/03/20 10:56:06;;;;;;;;;;;;;;;12.57;62.75;98314.09;5070555;28;19928;-57
2023/03/20 10:58:35;;;;;;;;;;;;;;;12.54;63.32;98320.16;5069899;28;19935;-58
2023/03/20 11:01:05;;;;;;;;;;;;;;;12.52;63.45;98325.13;5081060;28;19939;-57
2023/03/20 11:03:38;;;;;;;;;;;;;;;12.45;63.04;98322.03;5056387;28;19942;-57
2023/03/20 11:06:07;;;;;;;;;;;;;;;12.45;63.77;98324.75;5066830;28;19938;-57
2023/03/20 11:08:38;;;;;;;;;;;;;;;12.32;63.26;98321.03;5064674;28;20001;-58
2023/03/20 11:11:05;;;;;;;;;;;;;;;12.18;64.17;98323.00;5066131;28;19928;-58
2023/03/20 11:13:34;;;;;;;;;;;;;;;12.09;64.57;98318.63;5066886;28;20420;-57
2023/03/20 11:16:11;;;;;;;;;;;;;;;12.12;64.74;98321.53;5063347;28;19941;-57
2023/03/20 11:18:41;;;;;;;;;;;;;;;12.18;64.89;98312.13;5071013;28;19933;-57
2023/03/20 11:21:10;;;;;;;;;;;;;;;12.24;64.06;98316.31;5082368;28;19940;-57
2023/03/20 11:23:38;;;;;;;;;;;;;;;12.28;64.05;98311.06;5060594;28;19928;-57
2023/03/20 11:26:06;;;;;;;;;;;;;;;12.32;64.13;98310.13;5063519;28;19931;-57
2023/03/20 11:28:35;;;;;;;;;;;;;;;12.39;62.55;98306.16;5067854;28;19931;-58
2023/03/20 11:31:04;;;;;;;;;;;;;;;12.58;63.10;98304.78;5065872;28;19955;-56
2023/03/20 11:33:36;;;;;;;;;;;;;;;12.80;62.70;98300.38;5071097;28;19947;-55
2023/03/20 11:36:10;;;;;;;;;;;;;;;12.85;61.65;98305.69;5070655;28;19962;-62
2023/03/20 11:38:42;;;;;;;;;;;;;;;12.78;62.03;98300.72;5068254;28;19953;-55
2023/03/20 11:41:16;;;;;;;;;;;;;;;12.58;62.33;98293.09;5065064;28;19949;-57
2023/03/20 11:43:47;;;;;;;;;;;;;;;12.58;61.92;98291.16;5063025;28;19931;-59
2023/03/20 11:46:16;;;;;;;;;;;;;;;12.52;62.95;98297.88;5067459;28;19928;-59
2023/03/20 11:48:46;;;;;;;;;;;;;;;12.51;62.29;98288.06;5065221;28;19936;-59
2023/03/20 11:51:14;;;;;;;;;;;;;;;12.51;62.26;98298.97;5068011;28;19961;-58
2023/03/20 11:53:51;;;;;;;;;;;;;;;12.44;62.14;98290.47;5065930;28;19973;-56
2023/03/20 11:56:21;;;;;;;;;;;;;;;12.50;62.92;98297.38;5064097;28;20001;-56
2023/03/20 11:58:50;;;;;;;;;;;;;;;12.51;62.61;98293.53;5066178;28;19943;-56
2023/03/20 12:01:18;;;;;;;;;;;;;;;12.56;63.25;98295.31;5065397;28;20392;-57
2023/03/20 12:03:53;;;;;;;;;;;;;;;12.54;63.03;98292.09;5068092;28;20383;-57
2023/03/20 12:06:25;;;;;;;;;;;;;;;12.62;63.50;98293.25;5074459;28;20004;-58
2023/03/20 12:08:55;;;;;;;;;;;;;;;12.64;63.25;98291.84;5071669;28;19988;-58
2023/03/20 12:11:41;;;;;;;;;;;;;;;12.47;62.72;98275.41;5073080;28;19939;-61
2023/03/20 12:14:13;;;;;;;;;;;;;;;12.41;62.74;98282.94;5067109;28;20016;-56
2023/03/20 12:16:41;;;;;;;;;;;;;;;12.43;63.15;98280.69;5069952;28;20057;-56
2023/03/20 12:19:11;;;;;;;;;;;;;;;12.50;62.97;98280.22;5067572;28;20244;-57
2023/03/20 12:21:42;;;;;;;;;;;;;;;12.67;62.65;98274.03;5069916;28;19968;-56
2023/03/20 12:24:16;;;;;;;;;;;;;;;12.74;62.60;98274.38;5068550;28;19943;-56
2023/03/20 12:26:45;;;;;;;;;;;;;;;12.91;62.42;98266.25;5073960;28;19985;-56
2023/03/20 12:29:15;;;;;;;;;;;;;;;13.04;61.07;98262.56;5068195;28;19992;-60
2023/03/20 12:31:44;;;;;;;;;;;;;;;13.14;60.85;98260.66;5074830;28;20199;-55
2023/03/20 12:34:15;;;;;;;;;;;;;;;13.10;60.67;98253.13;5069053;28;20324;-55
2023/03/20 12:36:44;;;;;;;;;;;;;;;13.14;60.69;98256.00;5070227;28;19924;-57
2023/03/20 12:39:12;;;;;;;;;;;;;;;13.08;60.91;98251.81;5070419;28;20305;-55
2023/03/20 12:41:41;;;;;;;;;;;;;;;13.04;60.70;98254.38;5072860;28;19935;-55
2023/03/20 12:44:12;;;;;;;;;;;;;;;12.98;61.26;98252.94;5071429;28;19924;-56
2023/03/20 12:46:43;;;;;;;;;;;;;;;12.94;61.26;98249.22;5072765;28;20386;-56
2023/03/20 12:49:18;;;;;;;;;;;;;;;12.91;60.92;98252.63;5073173;28;20311;-60
2023/03/20 12:51:50;;;;;;;;;;;;;;;12.87;60.70;98240.72;5069698;28;19963;-58
2023/03/20 12:54:22;;;;;;;;;;;;;;;12.86;61.04;98247.31;5071184;28;19931;-55
2023/03/20 12:56:53;;;;;;;;;;;;;;;12.96;60.63;98243.47;5074989;28;19924;-56
2023/03/20 12:59:22;;;;;;;;;;;;;;;12.90;61.16;98242.84;5085610;28;20385;-56
2023/03/20 13:01:51;;;;;;;;;;;;;;;12.80;61.69;98252.09;5072509;28;19931;-56
2023/03/20 13:04:34;;;;;;;;;;;;;;;12.65;62.05;98249.81;5088602;28;19932;-57
2023/03/20 13:07:05;;;;;;;;;;;;;;;12.50;62.72;98252.97;5070035;28;20421;-56
2023/03/20 13:09:39;;;;;;;;;;;;;;;12.36;63.34;98253.09;5074181;28;19925;-57
2023/03/20 13:12:10;;;;;;;;;;;;;;;12.19;63.12;98244.81;5072254;28;19925;-56
2023/03/20 13:14:40;;;;;;;;;;;;;;;12.16;63.03;98238.09;5069469;28;19958;-64
2023/03/20 13:17:11;;;;;;;;;;;;;;;12.12;63.84;98248.00;5069852;28;19924;-57